createdAt,value
2018-12-05T00:00:41.339Z,10.58
2018-12-05T00:01:41.281Z,10.58
2018-12-05T00:02:41.246Z,10.60
2018-12-05T00:03:41.165Z,10.63
2018-12-05T00:04:41.105Z,10.62
2018-12-05T00:05:41.048Z,10.62
2018-12-05T00:06:40.991Z,10.58
2018-12-05T00:07:40.932Z,10.56
2018-12-05T00:08:40.877Z,10.62
2018-12-05T00:09:40.816Z,10.55
2018-12-05T00:10:40.761Z,10.62
2018-12-05T00:11:40.700Z,10.58
2018-12-05T00:12:40.641Z,10.55
2018-12-05T00:13:40.587Z,10.52
2018-12-05T00:14:40.526Z,10.53
2018-12-05T00:15:40.468Z,10.53
2018-12-05T00:16:40.409Z,10.53
2018-12-05T00:17:40.353Z,10.52
2018-12-05T00:18:40.297Z,10.53
2018-12-05T00:19:40.235Z,10.56
2018-12-05T00:20:40.179Z,10.58
2018-12-05T00:21:40.118Z,10.51
2018-12-05T00:22:40.060Z,10.53
2018-12-05T00:23:40.008Z,10.51
2018-12-05T00:24:39.944Z,10.52
2018-12-05T00:25:39.886Z,10.47
2018-12-05T00:26:39.830Z,10.47
2018-12-05T00:27:39.772Z,10.47
2018-12-05T00:28:39.715Z,10.63
2018-12-05T00:29:39.653Z,10.53
2018-12-05T00:30:39.596Z,10.47
2018-12-05T00:31:39.537Z,10.52
2018-12-05T00:32:39.479Z,10.55
2018-12-05T00:33:39.421Z,10.55
2018-12-05T00:34:39.364Z,10.46
2018-12-05T00:35:39.307Z,10.53
2018-12-05T00:36:39.246Z,10.59
2018-12-05T00:37:39.188Z,10.46
2018-12-05T00:38:39.131Z,10.60
2018-12-05T00:39:39.072Z,10.44
2018-12-05T00:40:39.014Z,10.53
2018-12-05T00:41:38.955Z,10.51
2018-12-05T00:42:38.897Z,10.47
2018-12-05T00:43:38.840Z,10.46
2018-12-05T00:44:38.782Z,10.46
2018-12-05T00:45:38.725Z,10.46
2018-12-05T00:46:38.665Z,10.46
2018-12-05T00:47:38.608Z,10.53
2018-12-05T00:48:38.549Z,10.56
2018-12-05T00:49:38.490Z,10.44
2018-12-05T00:50:38.433Z,10.46
2018-12-05T00:51:38.374Z,10.47
2018-12-05T00:52:38.315Z,10.43
2018-12-05T00:53:38.259Z,10.51
2018-12-05T00:54:38.201Z,10.52
2018-12-05T00:55:38.142Z,10.46
2018-12-05T00:56:38.083Z,10.47
2018-12-05T00:57:38.025Z,10.44
2018-12-05T00:58:37.967Z,10.46
2018-12-05T00:59:37.910Z,10.47
2018-12-05T01:00:37.855Z,10.52
2018-12-05T01:01:37.792Z,10.46
2018-12-05T01:02:37.735Z,10.47
2018-12-05T01:03:37.676Z,10.52
2018-12-05T01:04:37.617Z,10.46
2018-12-05T01:05:37.559Z,10.47
2018-12-05T01:06:37.501Z,10.46
2018-12-05T01:07:37.443Z,10.47
2018-12-05T01:08:37.385Z,10.43
2018-12-05T01:09:37.328Z,10.44
2018-12-05T01:10:37.271Z,10.47
2018-12-05T01:11:37.211Z,10.43
2018-12-05T01:12:37.152Z,10.43
2018-12-05T01:13:37.096Z,10.39
2018-12-05T01:14:37.036Z,10.37
2018-12-05T01:15:36.977Z,10.40
2018-12-05T01:16:36.945Z,10.37
2018-12-05T01:17:36.861Z,10.37
2018-12-05T01:18:36.806Z,10.37
2018-12-05T01:19:36.747Z,10.40
2018-12-05T01:20:36.686Z,10.37
2018-12-05T01:21:36.628Z,10.46
2018-12-05T01:22:36.572Z,10.39
2018-12-05T01:23:36.513Z,10.39
2018-12-05T01:24:36.454Z,10.39
2018-12-05T01:25:36.397Z,10.37
2018-12-05T01:26:36.337Z,10.37
2018-12-05T01:27:36.280Z,10.39
2018-12-05T01:28:36.221Z,10.40
2018-12-05T01:29:36.163Z,10.32
2018-12-05T01:30:36.104Z,10.40
2018-12-05T01:31:36.046Z,10.47
2018-12-05T01:32:35.988Z,10.34
2018-12-05T01:33:35.933Z,10.36
2018-12-05T01:34:35.872Z,10.36
2018-12-05T01:35:35.816Z,10.37
2018-12-05T01:36:35.755Z,10.36
2018-12-05T01:37:35.697Z,10.32
2018-12-05T01:38:35.638Z,10.34
2018-12-05T01:39:35.581Z,10.34
2018-12-05T01:40:35.522Z,10.33
2018-12-05T01:41:35.463Z,10.44
2018-12-05T01:42:35.406Z,10.37
2018-12-05T01:43:35.348Z,10.33
2018-12-05T01:44:35.289Z,10.36
2018-12-05T01:45:35.231Z,10.37
2018-12-05T01:46:35.174Z,10.30
2018-12-05T01:47:35.165Z,10.36
2018-12-05T01:48:35.056Z,10.33
2018-12-05T01:49:35.000Z,10.32
2018-12-05T01:50:34.941Z,10.39
2018-12-05T01:51:34.882Z,10.33
2018-12-05T01:52:34.822Z,10.32
2018-12-05T01:53:34.765Z,10.30
2018-12-05T01:54:34.709Z,10.36
2018-12-05T01:55:34.649Z,10.26
2018-12-05T01:56:34.593Z,10.36
2018-12-05T01:57:34.534Z,10.28
2018-12-05T01:58:34.474Z,10.33
2018-12-05T01:59:34.422Z,10.40
2018-12-05T02:00:34.358Z,10.37
2018-12-05T02:01:34.298Z,10.39
2018-12-05T02:02:34.245Z,10.34
2018-12-05T02:03:34.194Z,10.34
2018-12-05T02:04:34.125Z,10.37
2018-12-05T02:05:34.067Z,10.36
2018-12-05T02:06:34.009Z,10.39
2018-12-05T02:07:33.951Z,10.36
2018-12-05T02:08:33.894Z,10.33
2018-12-05T02:09:33.836Z,10.34
2018-12-05T02:10:33.775Z,10.30
2018-12-05T02:11:33.718Z,10.39
2018-12-05T02:12:33.658Z,10.36
2018-12-05T02:13:33.600Z,10.43
2018-12-05T02:14:33.542Z,10.33
2018-12-05T02:15:33.490Z,10.33
2018-12-05T02:16:33.425Z,10.32
2018-12-05T02:17:33.367Z,10.30
2018-12-05T02:18:33.308Z,10.28
2018-12-05T02:19:33.252Z,10.39
2018-12-05T02:20:33.191Z,10.33
2018-12-05T02:21:33.135Z,10.33
2018-12-05T02:22:33.076Z,10.33
2018-12-05T02:23:33.017Z,10.28
2018-12-05T02:24:32.962Z,10.40
2018-12-05T02:25:33.122Z,10.37
2018-12-05T02:26:32.846Z,10.42
2018-12-05T02:27:32.787Z,10.42
2018-12-05T02:28:32.725Z,10.32
2018-12-05T02:29:32.668Z,10.42
2018-12-05T02:30:32.610Z,10.30
2018-12-05T02:31:32.551Z,10.28
2018-12-05T02:32:32.539Z,10.26
2018-12-05T02:33:32.444Z,10.26
2018-12-05T02:34:32.376Z,10.26
2018-12-05T02:35:32.319Z,10.32
2018-12-05T02:36:32.262Z,10.19
2018-12-05T02:37:32.203Z,10.28
2018-12-05T02:38:32.143Z,10.24
2018-12-05T02:39:32.085Z,10.33
2018-12-05T02:40:32.025Z,10.28
2018-12-05T02:41:31.973Z,10.24
2018-12-05T02:42:31.910Z,10.26
2018-12-05T02:43:31.851Z,10.32
2018-12-05T02:44:31.792Z,10.30
2018-12-05T02:45:31.737Z,10.30
2018-12-05T02:46:31.680Z,10.33
2018-12-05T02:47:31.621Z,10.33
2018-12-05T02:48:31.559Z,10.34
2018-12-05T02:49:31.499Z,10.32
2018-12-05T02:50:31.442Z,10.26
2018-12-05T02:51:31.384Z,10.33
2018-12-05T02:52:31.325Z,10.34
2018-12-05T02:53:31.270Z,10.26
2018-12-05T02:54:31.211Z,10.30
2018-12-05T02:55:31.174Z,10.30
2018-12-05T02:56:31.091Z,10.26
2018-12-05T02:57:31.035Z,10.30
2018-12-05T02:58:30.976Z,10.33
2018-12-05T02:59:30.919Z,10.26
2018-12-05T03:00:30.864Z,10.32
2018-12-05T03:01:30.801Z,10.28
2018-12-05T03:02:30.744Z,10.26
2018-12-05T03:03:30.684Z,10.24
2018-12-05T03:04:30.626Z,10.24
2018-12-05T03:05:30.570Z,10.26
2018-12-05T03:06:30.508Z,10.28
2018-12-05T03:07:30.450Z,10.26
2018-12-05T03:08:30.391Z,10.18
2018-12-05T03:09:30.334Z,10.28
2018-12-05T03:10:30.276Z,10.24
2018-12-05T03:11:30.250Z,10.26
2018-12-05T03:12:30.159Z,10.26
2018-12-05T03:13:30.101Z,10.18
2018-12-05T03:14:30.041Z,10.21
2018-12-05T03:15:29.985Z,10.22
2018-12-05T03:16:29.926Z,10.19
2018-12-05T03:17:29.866Z,10.15
2018-12-05T03:18:29.806Z,10.19
2018-12-05T03:19:29.749Z,10.18
2018-12-05T03:20:29.694Z,10.30
2018-12-05T03:21:29.632Z,10.24
2018-12-05T03:22:29.577Z,10.22
2018-12-05T03:23:29.515Z,10.14
2018-12-05T03:24:29.457Z,10.22
2018-12-05T03:25:29.401Z,10.22
2018-12-05T03:26:29.340Z,10.21
2018-12-05T03:27:29.283Z,10.15
2018-12-05T03:28:29.222Z,10.19
2018-12-05T03:29:29.167Z,10.15
2018-12-05T03:30:29.107Z,10.19
2018-12-05T03:31:29.049Z,10.24
2018-12-05T03:32:28.990Z,10.19
2018-12-05T03:33:28.936Z,10.21
2018-12-05T03:34:28.873Z,10.21
2018-12-05T03:35:28.818Z,10.18
2018-12-05T03:36:28.757Z,10.18
2018-12-05T03:37:28.702Z,10.19
2018-12-05T03:38:28.641Z,10.17
2018-12-05T03:39:28.586Z,10.12
2018-12-05T03:40:28.521Z,10.18
2018-12-05T03:41:28.464Z,10.21
2018-12-05T03:42:28.406Z,10.22
2018-12-05T03:43:28.348Z,10.15
2018-12-05T03:44:28.295Z,10.18
2018-12-05T03:45:28.232Z,10.17
2018-12-05T03:46:28.175Z,10.12
2018-12-05T03:47:28.113Z,10.06
2018-12-05T03:48:28.055Z,10.07
2018-12-05T03:49:27.996Z,10.15
2018-12-05T03:50:27.939Z,10.22
2018-12-05T03:51:27.880Z,10.18
2018-12-05T03:52:27.820Z,10.12
2018-12-05T03:53:27.762Z,10.06
2018-12-05T03:54:27.705Z,10.15
2018-12-05T03:55:27.647Z,10.09
2018-12-05T03:56:27.587Z,10.15
2018-12-05T03:57:27.530Z,10.18
2018-12-05T03:58:27.470Z,10.12
2018-12-05T03:59:27.414Z,10.17
2018-12-05T04:00:27.356Z,10.12
2018-12-05T04:01:27.299Z,10.10
2018-12-05T04:02:27.237Z,10.10
2018-12-05T04:03:27.179Z,10.14
2018-12-05T04:04:27.119Z,10.15
2018-12-05T04:05:27.063Z,10.12
2018-12-05T04:06:27.003Z,10.09
2018-12-05T04:07:26.949Z,10.15
2018-12-05T04:08:26.886Z,10.09
2018-12-05T04:09:26.828Z,10.12
2018-12-05T04:10:26.772Z,10.15
2018-12-05T04:11:26.711Z,10.10
2018-12-05T04:12:26.654Z,10.14
2018-12-05T04:13:26.597Z,10.09
2018-12-05T04:14:26.536Z,10.10
2018-12-05T04:15:26.477Z,10.07
2018-12-05T04:16:26.417Z,10.09
2018-12-05T04:17:26.359Z,10.09
2018-12-05T04:18:26.302Z,10.06
2018-12-05T04:19:26.243Z,10.06
2018-12-05T04:20:26.184Z,10.10
2018-12-05T04:21:26.125Z,10.06
2018-12-05T04:22:26.072Z,10.01
2018-12-05T04:23:26.009Z,10.07
2018-12-05T04:24:25.950Z,10.01
2018-12-05T04:25:25.898Z,10.04
2018-12-05T04:26:25.834Z,10.12
2018-12-05T04:27:25.776Z,10.10
2018-12-05T04:28:25.717Z,10.09
2018-12-05T04:29:25.658Z,10.17
2018-12-05T04:30:25.600Z,10.00
2018-12-05T04:31:25.541Z,10.07
2018-12-05T04:32:25.482Z,10.07
2018-12-05T04:33:25.451Z,10.06
2018-12-05T04:34:25.365Z,10.09
2018-12-05T04:35:25.308Z,10.09
2018-12-05T04:36:25.249Z,10.06
2018-12-05T04:37:25.190Z,10.06
2018-12-05T04:38:25.131Z,10.04
2018-12-05T04:39:25.080Z,10.00
2018-12-05T04:40:25.013Z,10.01
2018-12-05T04:41:24.964Z,10.00
2018-12-05T04:42:24.897Z,10.01
2018-12-05T04:43:24.839Z,10.06
2018-12-05T04:44:24.780Z,10.04
2018-12-05T04:45:24.725Z,9.99
2018-12-05T04:46:24.663Z,10.04
2018-12-05T04:47:24.604Z,10.01
2018-12-05T04:48:24.546Z,10.07
2018-12-05T04:49:24.487Z,10.07
2018-12-05T04:50:24.428Z,10.04
2018-12-05T04:51:24.371Z,9.99
2018-12-05T04:52:24.314Z,10.00
2018-12-05T04:53:24.253Z,10.06
2018-12-05T04:54:24.197Z,10.06
2018-12-05T04:55:24.138Z,10.09
2018-12-05T04:56:24.082Z,10.00
2018-12-05T04:57:24.022Z,10.09
2018-12-05T04:58:23.961Z,10.07
2018-12-05T04:59:23.903Z,10.03
2018-12-05T05:00:23.842Z,10.10
2018-12-05T05:01:23.785Z,10.06
2018-12-05T05:02:23.726Z,10.06
2018-12-05T05:03:23.667Z,10.10
2018-12-05T05:04:23.608Z,10.07
2018-12-05T05:05:23.549Z,10.01
2018-12-05T05:06:23.493Z,10.07
2018-12-05T05:07:23.435Z,10.04
2018-12-05T05:08:23.375Z,9.97
2018-12-05T05:09:23.316Z,10.10
2018-12-05T05:10:23.257Z,10.07
2018-12-05T05:11:23.203Z,10.06
2018-12-05T05:12:23.142Z,10.07
2018-12-05T05:13:23.081Z,9.96
2018-12-05T05:14:23.024Z,9.99
2018-12-05T05:15:22.980Z,10.06
2018-12-05T05:16:22.910Z,9.97
2018-12-05T05:17:22.847Z,9.99
2018-12-05T05:18:22.788Z,10.00
2018-12-05T05:19:22.735Z,10.07
2018-12-05T05:20:22.670Z,9.97
2018-12-05T05:21:22.613Z,9.91
2018-12-05T05:22:22.555Z,9.89
2018-12-05T05:23:22.497Z,9.91
2018-12-05T05:24:22.436Z,10.01
2018-12-05T05:25:22.379Z,9.93
2018-12-05T05:26:22.446Z,9.96
2018-12-05T05:27:22.261Z,9.93
2018-12-05T05:28:22.202Z,10.00
2018-12-05T05:29:22.143Z,9.89
2018-12-05T05:30:22.085Z,9.91
2018-12-05T05:31:23.765Z,9.89
2018-12-05T05:32:21.970Z,9.96
2018-12-05T05:33:21.909Z,9.89
2018-12-05T05:34:21.851Z,9.94
2018-12-05T05:35:21.797Z,9.93
2018-12-05T05:36:21.735Z,9.97
2018-12-05T05:37:21.686Z,9.99
2018-12-05T05:38:21.616Z,9.91
2018-12-05T05:39:21.560Z,9.94
2018-12-05T05:40:21.501Z,9.94
2018-12-05T05:41:21.528Z,9.97
2018-12-05T05:42:21.382Z,9.94
2018-12-05T05:43:21.322Z,9.93
2018-12-05T05:44:21.266Z,9.93
2018-12-05T05:45:21.205Z,9.94
2018-12-05T05:46:21.149Z,9.94
2018-12-05T05:47:21.090Z,9.91
2018-12-05T05:48:21.032Z,9.91
2018-12-05T05:49:20.971Z,9.93
2018-12-05T05:50:20.913Z,9.91
2018-12-05T05:51:20.854Z,9.94
2018-12-05T05:52:20.794Z,9.93
2018-12-05T05:53:20.740Z,9.93
2018-12-05T05:54:20.682Z,9.93
2018-12-05T05:55:20.620Z,9.93
2018-12-05T05:56:20.561Z,9.96
2018-12-05T05:57:20.502Z,9.93
2018-12-05T05:58:20.448Z,9.91
2018-12-05T05:59:20.388Z,9.94
2018-12-05T06:00:20.327Z,9.89
2018-12-05T06:01:20.267Z,9.93
2018-12-05T06:02:20.418Z,9.93
2018-12-05T06:03:20.149Z,9.89
2018-12-05T06:04:20.091Z,9.93
2018-12-05T06:05:20.033Z,9.97
2018-12-05T06:06:19.975Z,9.93
2018-12-05T06:07:19.918Z,9.91
2018-12-05T06:08:19.857Z,9.88
2018-12-05T06:09:19.797Z,9.93
2018-12-05T06:10:19.738Z,9.91
2018-12-05T06:11:19.680Z,9.97
2018-12-05T06:12:19.624Z,9.91
2018-12-05T06:13:19.566Z,9.97
2018-12-05T06:14:19.506Z,9.96
2018-12-05T06:15:19.448Z,9.89
2018-12-05T06:16:19.386Z,9.91
2018-12-05T06:17:19.328Z,9.94
2018-12-05T06:18:19.269Z,9.89
2018-12-05T06:19:19.211Z,9.93
2018-12-05T06:20:19.153Z,9.94
2018-12-05T06:21:19.093Z,9.91
2018-12-05T06:22:19.040Z,9.89
2018-12-05T06:23:18.977Z,9.97
2018-12-05T06:24:18.920Z,9.96
2018-12-05T06:25:18.870Z,9.88
2018-12-05T06:26:18.801Z,9.89
2018-12-05T06:27:18.745Z,9.91
2018-12-05T06:28:18.684Z,9.93
2018-12-05T06:29:18.624Z,9.89
2018-12-05T06:30:18.565Z,9.91
2018-12-05T06:31:18.506Z,9.97
2018-12-05T06:32:18.447Z,9.93
2018-12-05T06:33:18.389Z,9.94
2018-12-05T06:34:18.331Z,9.91
2018-12-05T06:35:18.273Z,9.89
2018-12-05T06:36:18.211Z,9.91
2018-12-05T06:37:18.153Z,9.88
2018-12-05T06:38:18.094Z,9.86
2018-12-05T06:39:18.038Z,9.88
2018-12-05T06:40:17.977Z,9.89
2018-12-05T06:41:17.918Z,9.89
2018-12-05T06:42:17.861Z,9.93
2018-12-05T06:43:17.806Z,9.86
2018-12-05T06:44:17.745Z,9.88
2018-12-05T06:45:17.684Z,9.85
2018-12-05T06:46:17.626Z,9.88
2018-12-05T06:47:17.567Z,9.89
2018-12-05T06:48:17.508Z,9.85
2018-12-05T06:49:17.449Z,9.89
2018-12-05T06:50:17.391Z,9.88
2018-12-05T06:51:17.332Z,9.91
2018-12-05T06:52:17.272Z,9.88
2018-12-05T06:53:17.337Z,9.83
2018-12-05T06:54:17.172Z,9.89
2018-12-05T06:55:17.097Z,9.93
2018-12-05T06:56:17.040Z,9.96
2018-12-05T06:57:16.980Z,9.93
2018-12-05T06:58:16.920Z,9.88
2018-12-05T06:59:16.861Z,9.85
2018-12-05T07:00:16.803Z,9.85
2018-12-05T07:01:16.744Z,9.85
2018-12-05T07:02:16.685Z,9.96
2018-12-05T07:03:16.627Z,9.85
2018-12-05T07:04:16.567Z,9.91
2018-12-05T07:05:16.508Z,9.88
2018-12-05T07:06:16.450Z,9.96
2018-12-05T07:07:17.666Z,9.86
2018-12-05T07:08:16.334Z,9.88
2018-12-05T07:09:16.275Z,9.85
2018-12-05T07:10:16.218Z,9.91
2018-12-05T07:11:16.158Z,9.85
2018-12-05T07:12:16.099Z,9.88
2018-12-05T07:13:16.043Z,9.85
2018-12-05T07:14:15.979Z,9.88
2018-12-05T07:15:15.922Z,9.86
2018-12-05T07:16:15.864Z,9.86
2018-12-05T07:17:15.805Z,9.82
2018-12-05T07:18:15.748Z,9.91
2018-12-05T07:19:15.689Z,9.83
2018-12-05T07:20:15.628Z,9.83
2018-12-05T07:21:15.573Z,9.83
2018-12-05T07:22:15.512Z,9.91
2018-12-05T07:23:15.450Z,9.91
2018-12-05T07:24:15.396Z,9.88
2018-12-05T07:25:15.388Z,9.85
2018-12-05T07:26:15.275Z,9.91
2018-12-05T07:27:15.216Z,9.89
2018-12-05T07:28:15.157Z,9.83
2018-12-05T07:29:15.102Z,9.91
2018-12-05T07:30:15.041Z,9.83
2018-12-05T07:31:14.981Z,9.83
2018-12-05T07:32:14.976Z,9.88
2018-12-05T07:33:14.862Z,9.81
2018-12-05T07:34:14.804Z,9.86
2018-12-05T07:35:14.749Z,9.91
2018-12-05T07:36:14.691Z,9.89
2018-12-05T07:37:14.628Z,9.86
2018-12-05T07:38:19.304Z,9.85
2018-12-05T07:39:14.511Z,9.86
2018-12-05T07:40:14.452Z,9.88
2018-12-05T07:41:14.392Z,9.86
2018-12-05T07:42:14.335Z,9.85
2018-12-05T07:43:14.281Z,9.83
2018-12-05T07:44:14.216Z,9.86
2018-12-05T07:45:14.159Z,9.82
2018-12-05T07:46:14.099Z,9.86
2018-12-05T07:47:14.040Z,9.85
2018-12-05T07:48:13.981Z,9.82
2018-12-05T07:49:13.922Z,9.81
2018-12-05T07:50:13.864Z,9.89
2018-12-05T07:51:13.805Z,9.88
2018-12-05T07:52:13.749Z,9.85
2018-12-05T07:53:13.687Z,9.86
2018-12-05T07:54:13.635Z,9.88
2018-12-05T07:55:13.572Z,9.86
2018-12-05T07:56:13.511Z,9.82
2018-12-05T07:57:13.453Z,9.83
2018-12-05T07:58:13.394Z,9.83
2018-12-05T07:59:13.335Z,9.91
2018-12-05T08:00:13.276Z,9.85
2018-12-05T08:01:13.218Z,9.85
2018-12-05T08:02:13.158Z,9.82
2018-12-05T08:03:13.099Z,9.83
2018-12-05T08:04:13.042Z,9.89
2018-12-05T08:05:12.982Z,9.83
2018-12-05T08:06:12.923Z,9.83
2018-12-05T08:07:12.869Z,9.82
2018-12-05T08:08:12.805Z,9.91
2018-12-05T08:09:12.747Z,9.91
2018-12-05T08:10:12.687Z,9.88
2018-12-05T08:11:12.630Z,9.85
2018-12-05T08:12:12.569Z,9.88
2018-12-05T08:13:12.510Z,9.83
2018-12-05T08:14:12.452Z,9.91
2018-12-05T08:15:12.395Z,9.83
2018-12-05T08:16:12.334Z,9.85
2018-12-05T08:17:12.277Z,9.89
2018-12-05T08:18:12.217Z,9.83
2018-12-05T08:19:12.157Z,9.83
2018-12-05T08:20:12.098Z,9.89
2018-12-05T08:21:12.040Z,9.85
2018-12-05T08:22:11.983Z,9.86
2018-12-05T08:23:11.925Z,9.85
2018-12-05T08:24:11.863Z,9.86
2018-12-05T08:25:11.805Z,9.85
2018-12-05T08:26:11.748Z,9.91
2018-12-05T08:27:11.687Z,9.78
2018-12-05T08:28:11.629Z,9.94
2018-12-05T08:29:11.569Z,9.83
2018-12-05T08:30:11.514Z,9.88
2018-12-05T08:31:11.453Z,9.89
2018-12-05T08:32:11.393Z,9.91
2018-12-05T08:33:11.335Z,9.89
2018-12-05T08:34:11.276Z,9.91
2018-12-05T08:35:11.220Z,9.83
2018-12-05T08:36:11.158Z,9.86
2018-12-05T08:37:11.099Z,9.86
2018-12-05T08:38:11.042Z,9.83
2018-12-05T08:39:10.983Z,9.83
2018-12-05T08:40:10.921Z,9.85
2018-12-05T08:41:10.864Z,9.88
2018-12-05T08:42:10.805Z,9.83
2018-12-05T08:43:10.746Z,9.85
2018-12-05T08:44:10.690Z,9.85
2018-12-05T08:45:10.628Z,9.81
2018-12-05T08:46:10.569Z,9.83
2018-12-05T08:47:10.514Z,9.86
2018-12-05T08:48:10.451Z,9.91
2018-12-05T08:49:10.393Z,9.91
2018-12-05T08:50:10.337Z,9.85
2018-12-05T08:51:10.276Z,9.83
2018-12-05T08:52:10.216Z,9.86
2018-12-05T08:53:10.158Z,9.85
2018-12-05T08:54:10.100Z,9.91
2018-12-05T08:55:10.040Z,9.83
2018-12-05T08:56:09.986Z,9.85
2018-12-05T08:57:09.922Z,9.82
2018-12-05T08:58:09.864Z,9.91
2018-12-05T08:59:09.806Z,9.93
2018-12-05T09:00:09.748Z,9.93
2018-12-05T09:01:09.688Z,9.89
2018-12-05T09:02:09.628Z,9.86
2018-12-05T09:03:09.570Z,9.85
2018-12-05T09:04:09.510Z,9.91
2018-12-05T09:05:09.452Z,9.97
2018-12-05T09:06:09.399Z,9.93
2018-12-05T09:07:09.338Z,9.96
2018-12-05T09:08:09.336Z,9.91
2018-12-05T09:09:09.218Z,9.89
2018-12-05T09:10:09.159Z,9.97
2018-12-05T09:11:09.099Z,9.97
2018-12-05T09:12:09.040Z,9.85
2018-12-05T09:13:08.982Z,9.93
2018-12-05T09:14:08.923Z,9.94
2018-12-05T09:15:08.865Z,9.86
2018-12-05T09:16:08.807Z,9.93
2018-12-05T09:17:08.746Z,9.93
2018-12-05T09:18:08.688Z,9.91
2018-12-05T09:19:08.628Z,9.97
2018-12-05T09:20:08.571Z,9.99
2018-12-05T09:21:08.518Z,9.94
2018-12-05T09:22:08.472Z,10.00
2018-12-05T09:23:08.396Z,9.94
2018-12-05T09:24:08.336Z,9.97
2018-12-05T09:25:08.282Z,9.89
2018-12-05T09:26:08.218Z,9.93
2018-12-05T09:27:08.161Z,9.89
2018-12-05T09:28:08.100Z,9.96
2018-12-05T09:29:08.041Z,9.93
2018-12-05T09:30:07.986Z,9.93
2018-12-05T09:31:07.991Z,9.89
2018-12-05T09:32:07.870Z,9.96
2018-12-05T09:33:07.806Z,9.94
2018-12-05T09:34:07.748Z,9.94
2018-12-05T09:35:07.689Z,9.93
2018-12-05T09:36:07.633Z,9.94
2018-12-05T09:37:07.569Z,9.94
2018-12-05T09:38:07.514Z,9.93
2018-12-05T09:39:07.455Z,9.93
2018-12-05T09:40:07.395Z,9.93
2018-12-05T09:41:07.338Z,9.89
2018-12-05T09:42:07.286Z,9.94
2018-12-05T09:43:07.218Z,9.96
2018-12-05T09:44:07.161Z,9.99
2018-12-05T09:45:07.102Z,9.97
2018-12-05T09:46:07.042Z,9.96
2018-12-05T09:47:06.983Z,9.97
2018-12-05T09:48:06.924Z,9.93
2018-12-05T09:49:06.864Z,9.97
2018-12-05T09:50:06.812Z,9.89
2018-12-05T09:51:06.748Z,9.94
2018-12-05T09:52:06.688Z,9.89
2018-12-05T09:53:06.629Z,10.00
2018-12-05T09:54:06.620Z,9.99
2018-12-05T09:55:06.517Z,9.99
2018-12-05T09:56:06.459Z,10.00
2018-12-05T09:57:06.396Z,9.94
2018-12-05T09:58:06.341Z,9.96
2018-12-05T09:59:06.279Z,9.97
2018-12-05T10:00:06.221Z,10.03
2018-12-05T10:01:06.160Z,9.94
2018-12-05T10:02:06.105Z,10.01
2018-12-05T10:03:06.042Z,10.00
2018-12-05T10:04:05.987Z,10.03
2018-12-05T10:05:05.924Z,9.91
2018-12-05T10:06:05.882Z,9.88
2018-12-05T10:07:05.807Z,9.96
2018-12-05T10:08:05.752Z,10.06
2018-12-05T10:09:05.692Z,9.96
2018-12-05T10:10:05.631Z,10.01
2018-12-05T10:11:05.575Z,10.06
2018-12-05T10:12:05.515Z,10.03
2018-12-05T10:13:05.454Z,10.00
2018-12-05T10:14:05.469Z,9.96
2018-12-05T10:15:05.339Z,10.01
2018-12-05T10:16:05.279Z,10.04
2018-12-05T10:17:05.219Z,10.03
2018-12-05T10:18:05.161Z,10.03
2018-12-05T10:19:05.101Z,10.00
2018-12-05T10:20:05.099Z,9.97
2018-12-05T10:21:04.984Z,10.01
2018-12-05T10:22:04.929Z,9.96
2018-12-05T10:23:04.867Z,9.99
2018-12-05T10:24:04.808Z,9.93
2018-12-05T10:25:04.749Z,10.00
2018-12-05T10:26:04.691Z,10.00
2018-12-05T10:27:04.633Z,10.07
2018-12-05T10:28:04.577Z,9.99
2018-12-05T10:29:04.514Z,9.96
2018-12-05T10:30:04.457Z,10.03
2018-12-05T10:31:04.396Z,10.00
2018-12-05T10:32:05.155Z,10.00
2018-12-05T10:33:04.281Z,10.00
2018-12-05T10:34:04.221Z,10.00
2018-12-05T10:35:04.163Z,10.01
2018-12-05T10:36:04.106Z,9.96
2018-12-05T10:37:04.052Z,10.01
2018-12-05T10:38:03.985Z,9.93
2018-12-05T10:39:03.926Z,10.07
2018-12-05T10:40:03.867Z,10.00
2018-12-05T10:41:03.810Z,10.07
2018-12-05T10:42:03.750Z,10.00
2018-12-05T10:43:03.695Z,10.01
2018-12-05T10:44:03.633Z,9.91
2018-12-05T10:45:03.572Z,9.91
2018-12-05T10:46:03.515Z,10.06
2018-12-05T10:47:03.456Z,10.00
2018-12-05T10:48:03.398Z,10.09
2018-12-05T10:49:03.340Z,10.06
2018-12-05T10:50:03.279Z,9.97
2018-12-05T10:51:03.257Z,9.96
2018-12-05T10:52:03.162Z,10.07
2018-12-05T10:53:03.106Z,9.97
2018-12-05T10:54:03.050Z,10.00
2018-12-05T10:55:02.986Z,10.06
2018-12-05T10:56:02.926Z,9.99
2018-12-05T10:57:02.868Z,9.97
2018-12-05T10:58:02.810Z,9.94
2018-12-05T10:59:02.751Z,10.03
2018-12-05T11:00:02.706Z,9.94
2018-12-05T11:01:02.634Z,9.91
2018-12-05T11:02:02.574Z,9.97
2018-12-05T11:03:02.516Z,9.97
2018-12-05T11:04:02.456Z,9.96
2018-12-05T11:05:02.400Z,10.00
2018-12-05T11:06:02.338Z,9.96
2018-12-05T11:07:02.287Z,10.03
2018-12-05T11:08:02.220Z,9.97
2018-12-05T11:09:02.162Z,10.01
2018-12-05T11:10:02.107Z,10.00
2018-12-05T11:11:02.044Z,10.01
2018-12-05T11:12:01.991Z,10.01
2018-12-05T11:13:01.926Z,10.01
2018-12-05T11:14:01.869Z,9.96
2018-12-05T11:15:01.811Z,10.04
2018-12-05T11:16:01.751Z,9.99
2018-12-05T11:17:01.694Z,10.01
2018-12-05T11:18:01.635Z,10.03
2018-12-05T11:19:01.576Z,10.03
2018-12-05T11:20:01.533Z,10.07
2018-12-05T11:21:01.463Z,10.06
2018-12-05T11:22:01.397Z,9.93
2018-12-05T11:23:01.338Z,10.07
2018-12-05T11:24:01.281Z,10.03
2018-12-05T11:25:01.223Z,10.06
2018-12-05T11:26:01.161Z,10.04
2018-12-05T11:27:01.105Z,10.07
2018-12-05T11:28:01.043Z,10.03
2018-12-05T11:29:00.986Z,10.07
2018-12-05T11:30:00.929Z,10.07
2018-12-05T11:31:00.872Z,9.99
2018-12-05T11:32:00.809Z,10.03
2018-12-05T11:33:00.751Z,10.03
2018-12-05T11:34:00.691Z,10.09
2018-12-05T11:35:00.633Z,10.04
2018-12-05T11:36:00.574Z,10.03
2018-12-05T11:37:00.516Z,10.07
2018-12-05T11:38:00.462Z,10.10
2018-12-05T11:39:00.398Z,10.10
2018-12-05T11:40:00.338Z,10.03
2018-12-05T11:41:00.285Z,10.06
2018-12-05T11:42:00.222Z,10.01
2018-12-05T11:43:00.164Z,10.09
2018-12-05T11:44:00.103Z,10.09
2018-12-05T11:45:00.045Z,10.04
2018-12-05T11:45:59.988Z,10.06
2018-12-05T11:46:59.929Z,10.06
2018-12-05T11:47:59.870Z,10.04
2018-12-05T11:48:59.811Z,10.14
2018-12-05T11:49:59.752Z,10.03
2018-12-05T11:50:59.692Z,10.03
2018-12-05T11:51:59.634Z,10.01
2018-12-05T11:52:59.574Z,10.06
2018-12-05T11:53:59.516Z,10.10
2018-12-05T11:54:59.458Z,10.03
2018-12-05T11:55:59.403Z,10.12
2018-12-05T11:56:59.339Z,10.09
2018-12-05T11:57:59.281Z,10.01
2018-12-05T11:58:59.228Z,10.18
2018-12-05T11:59:59.163Z,10.04
2018-12-05T12:00:59.106Z,10.04
2018-12-05T12:01:59.046Z,10.03
2018-12-05T12:02:58.987Z,10.04
2018-12-05T12:03:58.928Z,10.06
2018-12-05T12:04:58.869Z,10.12
2018-12-05T12:05:58.812Z,9.97
2018-12-05T12:06:58.752Z,10.06
2018-12-05T12:07:58.693Z,10.07
2018-12-05T12:08:58.634Z,10.17
2018-12-05T12:09:58.576Z,10.07
2018-12-05T12:10:58.517Z,10.03
2018-12-05T12:11:58.459Z,10.09
2018-12-05T12:12:58.399Z,10.00
2018-12-05T12:13:58.341Z,10.09
2018-12-05T12:14:58.283Z,10.04
2018-12-05T12:15:58.223Z,10.01
2018-12-05T12:16:58.164Z,10.07
2018-12-05T12:17:58.106Z,10.09
2018-12-05T12:18:58.054Z,10.06
2018-12-05T12:19:57.992Z,10.10
2018-12-05T12:20:57.929Z,10.09
2018-12-05T12:21:57.871Z,10.04
2018-12-05T12:22:57.813Z,10.04
2018-12-05T12:23:57.752Z,10.14
2018-12-05T12:24:57.695Z,10.07
2018-12-05T12:25:57.637Z,10.07
2018-12-05T12:26:57.578Z,10.14
2018-12-05T12:27:57.521Z,10.10
2018-12-05T12:28:57.461Z,10.12
2018-12-05T12:29:57.400Z,10.06
2018-12-05T12:30:57.342Z,10.14
2018-12-05T12:31:57.282Z,10.14
2018-12-05T12:32:57.228Z,10.19
2018-12-05T12:33:57.172Z,10.09
2018-12-05T12:34:57.108Z,10.17
2018-12-05T12:35:57.053Z,10.14
2018-12-05T12:36:56.988Z,10.17
2018-12-05T12:37:56.930Z,10.12
2018-12-05T12:38:56.871Z,10.14
2018-12-05T12:39:56.814Z,10.07
2018-12-05T12:40:56.759Z,10.21
2018-12-05T12:41:56.697Z,10.18
2018-12-05T12:42:56.669Z,10.10
2018-12-05T12:43:56.578Z,10.18
2018-12-05T12:44:56.519Z,10.10
2018-12-05T12:45:56.461Z,10.15
2018-12-05T12:46:56.401Z,10.12
2018-12-05T12:47:56.342Z,10.12
2018-12-05T12:48:56.285Z,10.10
2018-12-05T12:49:56.228Z,10.19
2018-12-05T12:50:56.167Z,10.25
2018-12-05T12:51:56.108Z,10.19
2018-12-05T12:52:56.049Z,10.22
2018-12-05T12:53:55.990Z,10.21
2018-12-05T12:54:55.931Z,10.18
2018-12-05T12:55:55.873Z,10.17
2018-12-05T12:56:55.813Z,10.17
2018-12-05T12:57:55.758Z,10.15
2018-12-05T12:58:55.697Z,10.24
2018-12-05T12:59:55.639Z,10.17
2018-12-05T13:00:55.579Z,10.17
2018-12-05T13:01:55.522Z,10.19